createdAt,value
2018-03-08T00:00:25.938Z,6.05
2018-03-08T00:02:53.568Z,6.04
2018-03-08T00:05:21.226Z,6.04
2018-03-08T00:07:49.151Z,6.04
2018-03-08T00:10:16.733Z,6.01
2018-03-08T00:12:44.312Z,6.00
2018-03-08T00:15:11.960Z,5.99
2018-03-08T00:17:39.534Z,5.98
2018-03-08T00:20:07.521Z,5.96
2018-03-08T00:22:35.636Z,5.99
2018-03-08T00:25:03.797Z,5.97
2018-03-08T00:27:31.826Z,5.98
2018-03-08T00:30:00.125Z,5.97
2018-03-08T00:32:28.110Z,5.95
2018-03-08T00:34:56.313Z,5.98
2018-03-08T00:37:23.873Z,6.00
2018-03-08T00:39:51.462Z,5.99
2018-03-08T00:42:19.131Z,6.05
2018-03-08T00:44:46.828Z,6.07
2018-03-08T00:47:14.480Z,6.03
2018-03-08T00:49:42.123Z,6.07
2018-03-08T00:52:09.748Z,6.09
2018-03-08T00:54:37.334Z,6.10
2018-03-08T00:57:05.009Z,6.12
2018-03-08T00:59:32.629Z,6.07
2018-03-08T01:02:00.210Z,6.10
2018-03-08T01:04:27.849Z,6.08
2018-03-08T01:06:55.468Z,6.07
2018-03-08T01:09:23.371Z,6.09
2018-03-08T01:11:50.955Z,6.07
2018-03-08T01:14:18.514Z,6.05
2018-03-08T01:16:46.221Z,6.02
2018-03-08T01:19:13.915Z,6.01
2018-03-08T01:21:41.476Z,6.00
2018-03-08T01:24:09.085Z,5.98
2018-03-08T01:26:36.693Z,5.94
2018-03-08T01:29:04.291Z,5.93
2018-03-08T01:31:31.895Z,5.89
2018-03-08T01:33:59.502Z,5.86
2018-03-08T01:36:29.851Z,5.82
2018-03-08T01:38:57.438Z,5.78
2018-03-08T01:41:25.156Z,5.77
2018-03-08T01:43:52.770Z,5.73
2018-03-08T01:46:20.339Z,5.77
2018-03-08T01:48:47.938Z,5.75
2018-03-08T01:51:15.571Z,5.70
2018-03-08T01:53:43.133Z,5.59
2018-03-08T01:56:11.064Z,5.53
2018-03-08T01:58:38.973Z,5.52
2018-03-08T02:01:06.652Z,5.47
2018-03-08T02:03:34.332Z,5.42
2018-03-08T02:06:01.917Z,5.39
2018-03-08T02:08:29.503Z,5.35
2018-03-08T02:10:57.141Z,5.32
2018-03-08T02:13:24.824Z,5.32
2018-03-08T02:15:52.929Z,5.33
2018-03-08T02:18:20.542Z,5.37
2018-03-08T02:20:48.235Z,5.33
2018-03-08T02:23:15.810Z,5.37
2018-03-08T02:25:43.418Z,5.40
2018-03-08T02:28:10.992Z,5.42
2018-03-08T02:30:38.917Z,5.40
2018-03-08T02:33:06.673Z,5.36
2018-03-08T02:35:38.531Z,5.38
2018-03-08T02:38:06.580Z,5.34
2018-03-08T02:40:34.455Z,5.31
2018-03-08T02:43:02.091Z,5.32
2018-03-08T02:45:29.857Z,5.26
2018-03-08T02:47:57.610Z,5.23
2018-03-08T02:50:25.322Z,5.23
2018-03-08T02:52:53.092Z,5.22
2018-03-08T02:55:20.702Z,5.21
2018-03-08T02:57:48.310Z,5.21
2018-03-08T03:00:15.992Z,5.20
2018-03-08T03:02:43.704Z,5.18
2018-03-08T03:05:11.283Z,5.17
2018-03-08T03:07:39.102Z,5.16
2018-03-08T03:10:06.741Z,5.13
2018-03-08T03:12:34.574Z,5.14
2018-03-08T03:15:02.161Z,5.15
2018-03-08T03:17:29.843Z,5.13
2018-03-08T03:19:57.506Z,5.14
2018-03-08T03:22:25.456Z,5.14
2018-03-08T03:24:53.162Z,5.10
2018-03-08T03:27:20.764Z,5.12
2018-03-08T03:29:48.437Z,5.12
2018-03-08T03:32:15.999Z,5.12
2018-03-08T03:34:43.676Z,5.13
2018-03-08T03:37:11.665Z,5.15
2018-03-08T03:39:39.277Z,5.13
2018-03-08T03:42:06.918Z,5.13
2018-03-08T03:44:34.546Z,5.15
2018-03-08T03:47:02.172Z,5.15
2018-03-08T03:49:29.943Z,5.13
2018-03-08T03:51:57.766Z,5.09
2018-03-08T03:54:25.448Z,5.07
2018-03-08T03:56:53.112Z,5.10
2018-03-08T03:59:20.689Z,5.10
2018-03-08T04:01:48.374Z,5.11
2018-03-08T04:04:16.034Z,5.11
2018-03-08T04:06:44.620Z,5.09
2018-03-08T04:09:12.336Z,5.04
2018-03-08T04:11:40.106Z,5.02
2018-03-08T04:14:07.707Z,4.99
2018-03-08T04:16:35.328Z,4.96
2018-03-08T04:19:03.030Z,4.92
2018-03-08T04:21:30.687Z,4.90
2018-03-08T04:23:58.380Z,4.87
2018-03-08T04:26:26.092Z,4.87
2018-03-08T04:28:53.743Z,4.83
2018-03-08T04:31:21.429Z,4.83
2018-03-08T04:33:49.042Z,4.87
2018-03-08T04:36:16.796Z,4.86
2018-03-08T04:38:44.516Z,4.87
2018-03-08T04:41:12.079Z,4.86
2018-03-08T04:43:39.625Z,4.86
2018-03-08T04:46:07.244Z,4.88
2018-03-08T04:48:34.858Z,4.87
2018-03-08T04:51:02.465Z,4.88
2018-03-08T04:53:30.158Z,4.86
2018-03-08T04:55:57.995Z,4.86
2018-03-08T04:58:25.586Z,4.85
2018-03-08T05:00:53.142Z,4.84
2018-03-08T05:03:20.806Z,4.85
2018-03-08T05:05:48.594Z,4.83
2018-03-08T05:08:16.237Z,4.85
2018-03-08T05:10:43.845Z,4.86
2018-03-08T05:13:11.404Z,4.88
2018-03-08T05:15:39.101Z,4.86
2018-03-08T05:18:06.731Z,4.83
2018-03-08T05:20:34.309Z,4.82
2018-03-08T05:23:01.924Z,4.81
2018-03-08T05:25:29.534Z,4.82
2018-03-08T05:27:57.448Z,4.82
2018-03-08T05:30:25.115Z,4.83
2018-03-08T05:32:53.066Z,4.80
2018-03-08T05:35:20.641Z,4.78
2018-03-08T05:37:48.392Z,4.76
2018-03-08T05:40:15.960Z,4.77
2018-03-08T05:42:43.565Z,4.74
2018-03-08T05:45:11.170Z,4.75
2018-03-08T05:47:38.809Z,4.76
2018-03-08T05:50:06.554Z,4.72
2018-03-08T05:52:34.372Z,4.70
2018-03-08T05:55:02.009Z,4.69
2018-03-08T05:57:29.629Z,4.67
2018-03-08T05:59:57.289Z,4.66
2018-03-08T06:02:24.996Z,4.65
2018-03-08T06:04:52.613Z,4.66
2018-03-08T06:07:20.205Z,4.65
2018-03-08T06:09:47.848Z,4.66
2018-03-08T06:12:15.463Z,4.61
2018-03-08T06:14:43.135Z,4.61
2018-03-08T06:17:10.869Z,4.62
2018-03-08T06:19:38.443Z,4.60
2018-03-08T06:22:06.041Z,4.59
2018-03-08T06:24:33.631Z,4.59
2018-03-08T06:27:01.252Z,4.56
2018-03-08T06:29:28.871Z,4.54
2018-03-08T06:31:56.467Z,4.48
2018-03-08T06:34:24.085Z,4.48
2018-03-08T06:36:51.652Z,4.44
2018-03-08T06:39:19.232Z,4.43
2018-03-08T06:41:46.831Z,4.36
2018-03-08T06:44:14.387Z,4.40
2018-03-08T06:46:41.961Z,4.38
2018-03-08T06:49:09.840Z,4.38
2018-03-08T06:51:37.462Z,4.38
2018-03-08T06:54:05.027Z,4.36
2018-03-08T06:56:32.617Z,4.36
2018-03-08T06:59:00.251Z,4.40
2018-03-08T07:01:27.836Z,4.42
2018-03-08T07:03:55.417Z,4.41
2018-03-08T07:06:23.021Z,4.42
2018-03-08T07:08:50.597Z,4.40
2018-03-08T07:11:18.193Z,4.40
2018-03-08T07:13:45.964Z,4.39
2018-03-08T07:16:13.556Z,4.42
2018-03-08T07:18:41.177Z,4.45
2018-03-08T07:21:08.844Z,4.49
2018-03-08T07:23:36.419Z,4.49
2018-03-08T07:26:04.310Z,4.51
2018-03-08T07:28:32.035Z,4.54
2018-03-08T07:30:59.621Z,4.56
2018-03-08T07:33:27.179Z,4.57
2018-03-08T07:35:54.833Z,4.61
2018-03-08T07:38:22.429Z,4.62
2018-03-08T07:40:50.010Z,4.65
2018-03-08T07:43:17.644Z,4.69
2018-03-08T07:45:45.316Z,4.74
2018-03-08T07:48:12.919Z,4.78
2018-03-08T07:50:40.520Z,4.81
2018-03-08T07:53:08.245Z,4.84
2018-03-08T07:55:35.713Z,4.88
2018-03-08T07:58:03.305Z,4.94
2018-03-08T08:00:30.913Z,4.98
2018-03-08T08:02:58.471Z,4.98
2018-03-08T08:05:38.626Z,5.02
2018-03-08T08:08:17.936Z,5.09
2018-03-08T08:10:45.531Z,5.14
2018-03-08T08:13:13.155Z,5.17
2018-03-08T08:15:40.767Z,5.24
2018-03-08T08:18:08.333Z,5.28
2018-03-08T08:20:36.187Z,5.35
2018-03-08T08:23:03.759Z,5.40
2018-03-08T08:25:31.330Z,5.46
2018-03-08T08:27:58.982Z,5.49
2018-03-08T08:30:26.892Z,5.50
2018-03-08T08:32:54.548Z,5.53
2018-03-08T08:35:22.111Z,5.57
2018-03-08T08:37:49.749Z,5.61
2018-03-08T08:40:17.392Z,5.66
2018-03-08T08:42:44.982Z,5.69
2018-03-08T08:45:12.537Z,5.73
2018-03-08T08:47:40.142Z,5.78
2018-03-08T08:50:07.746Z,5.84
2018-03-08T08:52:35.324Z,5.87
2018-03-08T08:55:02.960Z,5.92
2018-03-08T08:57:30.656Z,5.96
2018-03-08T08:59:58.244Z,6.01
2018-03-08T09:02:25.881Z,6.06
2018-03-08T09:04:53.465Z,6.11
2018-03-08T09:07:21.051Z,6.15
2018-03-08T09:09:48.682Z,6.26
2018-03-08T09:12:16.251Z,6.36
2018-03-08T09:14:43.866Z,6.35
2018-03-08T09:17:11.487Z,6.43
2018-03-08T09:19:39.205Z,6.53
2018-03-08T09:22:06.775Z,6.64
2018-03-08T09:24:34.358Z,6.78
2018-03-08T09:27:01.941Z,6.90
2018-03-08T09:29:29.569Z,7.02
2018-03-08T09:31:57.151Z,7.12
2018-03-08T09:34:24.801Z,7.24
2018-03-08T09:36:52.399Z,7.33
2018-03-08T09:39:19.995Z,7.40
2018-03-08T09:41:47.569Z,7.53
2018-03-08T09:44:15.259Z,7.69
2018-03-08T09:46:42.907Z,7.80
2018-03-08T09:49:10.532Z,7.81
2018-03-08T09:51:38.107Z,7.74
2018-03-08T09:54:06.073Z,7.76
2018-03-08T09:56:33.937Z,7.85
2018-03-08T09:59:01.542Z,7.94
2018-03-08T10:01:30.157Z,8.03
2018-03-08T10:03:57.753Z,8.04
2018-03-08T10:06:25.311Z,8.07
2018-03-08T10:08:52.923Z,8.12
2018-03-08T10:11:20.580Z,8.12
2018-03-08T10:13:48.148Z,8.21
2018-03-08T10:16:15.981Z,8.29
2018-03-08T10:21:10.469Z,8.39
2018-03-08T10:23:38.053Z,8.45
2018-03-08T10:26:05.881Z,8.52
2018-03-08T10:28:33.532Z,8.58
2018-03-08T10:31:01.130Z,8.61
2018-03-08T10:33:28.685Z,8.64
2018-03-08T10:35:56.637Z,8.69
2018-03-08T10:38:24.269Z,8.72
2018-03-08T10:40:51.865Z,8.84
2018-03-08T10:43:19.420Z,9.04
2018-03-08T10:45:47.023Z,9.21
2018-03-08T10:48:14.658Z,9.33
2018-03-08T10:50:42.298Z,9.48
2018-03-08T10:53:09.872Z,9.73
2018-03-08T10:55:37.498Z,9.84
2018-03-08T10:58:06.313Z,9.83
2018-03-08T11:00:40.094Z,9.75
2018-03-08T11:03:08.017Z,9.67
2018-03-08T11:05:41.142Z,9.63
2018-03-08T11:08:08.756Z,9.63
2018-03-08T11:10:36.599Z,9.62
2018-03-08T11:13:06.643Z,9.58
2018-03-08T11:15:34.271Z,9.50
2018-03-08T11:18:02.065Z,9.42
2018-03-08T11:20:29.683Z,9.35
2018-03-08T11:22:57.238Z,9.36
2018-03-08T11:25:24.874Z,9.34
2018-03-08T11:27:52.477Z,9.38
2018-03-08T11:30:20.283Z,9.42
2018-03-08T11:32:47.861Z,9.42
2018-03-08T11:35:15.422Z,9.41
2018-03-08T11:37:43.006Z,9.44
2018-03-08T11:40:10.607Z,9.43
2018-03-08T11:42:38.221Z,9.38
2018-03-08T11:45:06.123Z,9.35
2018-03-08T11:47:33.979Z,9.32
2018-03-08T11:50:01.548Z,9.26
2018-03-08T11:52:29.158Z,9.20
2018-03-08T11:54:56.807Z,9.15
2018-03-08T11:57:24.372Z,9.13
2018-03-08T11:59:51.982Z,9.12
2018-03-08T12:02:19.530Z,9.13
2018-03-08T12:04:47.130Z,9.11
2018-03-08T12:07:14.771Z,9.06
2018-03-08T12:09:42.345Z,8.97
2018-03-08T12:12:09.916Z,8.96
2018-03-08T12:14:37.503Z,8.89
2018-03-08T12:17:05.128Z,8.84
2018-03-08T12:19:33.045Z,8.77
2018-03-08T12:22:00.703Z,8.68
2018-03-08T12:24:28.311Z,8.63
2018-03-08T12:26:55.958Z,8.54
2018-03-08T12:29:23.497Z,8.47
2018-03-08T12:31:51.404Z,8.41
2018-03-08T12:34:19.040Z,8.30
2018-03-08T12:36:46.605Z,8.30
2018-03-08T12:39:14.199Z,8.27
2018-03-08T12:41:41.810Z,8.18
2018-03-08T12:44:09.393Z,8.18
2018-03-08T12:46:36.959Z,8.14
2018-03-08T12:49:04.597Z,8.12
2018-03-08T12:51:32.271Z,8.08
2018-03-08T12:53:59.848Z,8.08
2018-03-08T12:56:27.432Z,8.06
2018-03-08T12:58:55.034Z,8.00
2018-03-08T13:01:22.634Z,8.00
2018-03-08T13:03:50.244Z,7.98
2018-03-08T13:06:17.805Z,7.92
2018-03-08T13:08:45.370Z,7.84
2018-03-08T13:11:13.020Z,7.80
2018-03-08T13:13:40.614Z,7.77
2018-03-08T13:16:08.988Z,7.81
2018-03-08T13:18:36.658Z,7.85
2018-03-08T13:21:04.224Z,7.83
2018-03-08T13:23:32.014Z,7.86
2018-03-08T13:25:59.606Z,7.85
2018-03-08T13:28:27.205Z,7.90
2018-03-08T13:30:54.791Z,7.89
2018-03-08T13:33:22.368Z,7.92
2018-03-08T13:35:49.949Z,7.88
2018-03-08T13:38:17.593Z,7.87
2018-03-08T13:40:45.158Z,7.87
2018-03-08T13:43:12.829Z,7.85
2018-03-08T13:45:40.453Z,7.89
2018-03-08T13:48:08.000Z,7.88
2018-03-08T13:50:35.638Z,7.85
2018-03-08T13:53:03.219Z,7.81
2018-03-08T13:55:30.798Z,7.70
2018-03-08T13:57:58.381Z,7.70
2018-03-08T14:00:26.046Z,7.70
2018-03-08T14:02:53.587Z,7.65
2018-03-08T14:05:21.156Z,7.60
2018-03-08T14:07:48.742Z,7.51
2018-03-08T14:10:16.329Z,7.47
2018-03-08T14:12:44.021Z,7.47
2018-03-08T14:15:11.563Z,7.46
2018-03-08T14:17:39.147Z,7.40
2018-03-08T14:20:06.753Z,7.40
2018-03-08T14:22:34.370Z,7.36
2018-03-08T14:25:01.954Z,7.36
2018-03-08T14:27:29.589Z,7.37
2018-03-08T14:29:57.143Z,7.45
2018-03-08T14:32:24.759Z,7.45
2018-03-08T14:34:52.353Z,7.49
2018-03-08T14:37:20.349Z,7.54
2018-03-08T14:39:48.217Z,7.56
2018-03-08T14:42:15.791Z,7.55
2018-03-08T14:44:43.404Z,7.55
2018-03-08T14:47:11.043Z,7.53
2018-03-08T14:49:38.651Z,7.47
2018-03-08T14:52:06.209Z,7.50
2018-03-08T14:54:33.904Z,7.51
2018-03-08T14:57:01.497Z,7.47
2018-03-08T14:59:29.151Z,7.49
2018-03-08T15:01:56.961Z,7.46
2018-03-08T15:04:24.939Z,7.44
2018-03-08T15:06:52.518Z,7.43
2018-03-08T15:09:20.062Z,7.44
2018-03-08T15:11:47.719Z,7.47
2018-03-08T15:14:15.306Z,7.43
2018-03-08T15:16:42.884Z,7.44
2018-03-08T15:19:10.500Z,7.44
2018-03-08T15:21:38.068Z,7.45
2018-03-08T15:24:05.691Z,7.43
2018-03-08T15:26:33.256Z,7.46
2018-03-08T15:29:00.838Z,7.31
2018-03-08T15:31:28.467Z,7.07
2018-03-08T15:33:56.013Z,6.92
2018-03-08T15:36:23.567Z,6.86
2018-03-08T15:38:51.190Z,6.87
2018-03-08T15:41:18.810Z,6.98
2018-03-08T15:43:46.407Z,7.20
2018-03-08T15:46:13.969Z,7.41
2018-03-08T15:48:41.558Z,7.53
2018-03-08T15:51:09.508Z,7.64
2018-03-08T15:53:37.175Z,7.70
2018-03-08T15:56:05.030Z,7.69
2018-03-08T15:58:32.887Z,7.64
2018-03-08T16:01:00.524Z,7.63
2018-03-08T16:03:28.375Z,7.63
2018-03-08T16:05:56.016Z,7.60
2018-03-08T16:11:21.426Z,7.57
2018-03-08T16:13:49.032Z,7.57
2018-03-08T16:16:16.947Z,7.56
2018-03-08T16:18:44.602Z,7.53
2018-03-08T16:21:12.160Z,7.49
2018-03-08T16:23:39.750Z,7.45
2018-03-08T16:26:07.391Z,7.44
2018-03-08T16:28:34.985Z,7.44
2018-03-08T16:31:02.545Z,7.44
2018-03-08T16:33:30.154Z,7.39
2018-03-08T16:35:57.787Z,7.41
2018-03-08T16:38:25.324Z,7.38
2018-03-08T16:40:53.160Z,7.36
2018-03-08T16:43:20.812Z,7.32
2018-03-08T16:45:49.464Z,7.27
2018-03-08T16:48:17.048Z,7.26
2018-03-08T16:50:44.680Z,7.17
2018-03-08T16:53:12.323Z,7.17
2018-03-08T16:55:39.880Z,7.13
2018-03-08T16:58:07.505Z,7.13
2018-03-08T17:00:35.090Z,7.14
2018-03-08T17:03:02.687Z,7.11
2018-03-08T17:05:30.280Z,7.07
2018-03-08T17:07:57.851Z,7.04
2018-03-08T17:10:25.423Z,7.05
2018-03-08T17:12:53.283Z,7.02
2018-03-08T17:15:20.880Z,6.93
2018-03-08T17:17:48.624Z,6.87
2018-03-08T17:20:16.285Z,6.81
2018-03-08T17:22:44.248Z,6.70
2018-03-08T17:25:11.882Z,6.58
2018-03-08T17:27:39.585Z,6.36
2018-03-08T17:30:07.197Z,6.19
2018-03-08T17:32:40.046Z,5.85
2018-03-08T17:35:07.642Z,5.76
2018-03-08T17:37:35.216Z,5.64
2018-03-08T17:40:02.944Z,5.66
2018-03-08T17:42:30.572Z,5.60
2018-03-08T17:44:58.524Z,5.60
2018-03-08T17:47:26.493Z,5.57
2018-03-08T17:49:54.122Z,5.55
2018-03-08T17:52:21.751Z,5.50
2018-03-08T17:54:49.802Z,5.42
2018-03-08T17:57:17.386Z,5.39
2018-03-08T17:59:44.983Z,5.36
2018-03-08T18:02:12.615Z,5.37
2018-03-08T18:04:40.198Z,5.38
2018-03-08T18:07:07.826Z,5.39
2018-03-08T18:09:35.399Z,5.41
2018-03-08T18:12:02.974Z,5.48
2018-03-08T18:14:30.593Z,5.48
2018-03-08T18:16:58.204Z,5.55
2018-03-08T18:19:25.758Z,5.62
2018-03-08T18:21:54.179Z,5.70
2018-03-08T18:24:21.760Z,5.75
2018-03-08T18:26:49.371Z,5.79
2018-03-08T18:29:17.003Z,5.78
2018-03-08T18:31:44.628Z,5.82
2018-03-08T18:34:12.232Z,5.76
2018-03-08T18:36:39.946Z,5.75
2018-03-08T18:39:07.571Z,5.74
2018-03-08T18:41:35.161Z,5.69
2018-03-08T18:44:02.796Z,5.64
2018-03-08T18:46:30.357Z,5.64
2018-03-08T18:48:57.949Z,5.65
2018-03-08T18:51:25.556Z,5.64
2018-03-08T18:53:53.128Z,5.61
2018-03-08T18:56:20.976Z,5.57
2018-03-08T18:58:48.638Z,5.53
2018-03-08T19:01:16.293Z,5.42
2018-03-08T19:03:44.386Z,5.43
2018-03-08T19:06:12.167Z,5.42
2018-03-08T19:08:39.782Z,5.38
2018-03-08T19:11:07.481Z,5.35
2018-03-08T19:13:35.141Z,5.30
2018-03-08T19:16:02.723Z,5.30
2018-03-08T19:18:30.611Z,5.25
2018-03-08T19:21:04.911Z,5.22
2018-03-08T19:23:32.531Z,5.19
2018-03-08T19:26:00.095Z,5.15
2018-03-08T19:28:27.744Z,5.15
2018-03-08T19:30:55.312Z,5.11
2018-03-08T19:33:22.894Z,5.09
2018-03-08T19:35:50.535Z,5.10
2018-03-08T19:38:18.120Z,5.08
2018-03-08T19:40:45.910Z,5.06
2018-03-08T19:43:13.770Z,5.02
2018-03-08T19:45:41.345Z,5.06
2018-03-08T19:48:08.928Z,4.97
2018-03-08T19:50:36.881Z,4.98
2018-03-08T19:53:04.561Z,4.95
2018-03-08T19:55:32.219Z,4.96
2018-03-08T19:58:00.183Z,4.93
2018-03-08T20:00:27.873Z,4.95
2018-03-08T20:02:55.505Z,4.91
2018-03-08T20:05:23.065Z,4.88
2018-03-08T20:07:50.705Z,4.87
2018-03-08T20:10:18.285Z,4.81
2018-03-08T20:12:46.411Z,4.80
2018-03-08T20:15:14.114Z,4.79
2018-03-08T20:17:41.712Z,4.84
2018-03-08T20:20:09.369Z,4.83
2018-03-08T20:22:37.201Z,4.81
2018-03-08T20:25:04.834Z,4.79
2018-03-08T20:27:32.488Z,4.82
2018-03-08T20:30:00.182Z,4.82
2018-03-08T20:32:27.768Z,4.84
2018-03-08T20:34:55.417Z,4.79
2018-03-08T20:37:23.240Z,4.81
2018-03-08T20:39:50.856Z,4.82
2018-03-08T20:42:18.482Z,4.83
2018-03-08T20:44:46.248Z,4.83
2018-03-08T20:47:13.823Z,4.83
2018-03-08T20:49:41.447Z,4.84
2018-03-08T20:52:09.220Z,4.91
2018-03-08T20:54:36.763Z,4.95
2018-03-08T20:57:04.522Z,5.01
2018-03-08T20:59:32.180Z,5.05
2018-03-08T21:01:59.759Z,5.10
2018-03-08T21:04:27.351Z,5.12
2018-03-08T21:06:55.001Z,5.19
2018-03-08T21:09:22.584Z,5.25
2018-03-08T21:11:50.225Z,5.27
2018-03-08T21:14:17.814Z,5.32
2018-03-08T21:16:45.403Z,5.38
2018-03-08T21:19:13.051Z,5.40
2018-03-08T21:21:40.646Z,5.38
2018-03-08T21:24:08.250Z,5.42
2018-03-08T21:26:35.865Z,5.47
2018-03-08T21:29:03.470Z,5.53
2018-03-08T21:31:31.058Z,5.52
2018-03-08T21:33:58.647Z,5.52
2018-03-08T21:36:26.365Z,5.50
2018-03-08T21:38:53.959Z,5.55
2018-03-08T21:41:21.530Z,5.59
2018-03-08T21:43:49.133Z,5.59
2018-03-08T21:46:16.687Z,5.65
2018-03-08T21:48:44.560Z,5.69
2018-03-08T21:51:12.148Z,5.69
2018-03-08T21:53:39.784Z,5.74
2018-03-08T21:56:07.428Z,5.74
2018-03-08T21:58:35.001Z,5.82
2018-03-08T22:01:02.563Z,5.90
2018-03-08T22:03:30.174Z,5.96
2018-03-08T22:05:57.809Z,5.96
2018-03-08T22:08:25.388Z,5.98
2018-03-08T22:10:53.006Z,6.03
2018-03-08T22:13:20.578Z,6.04
2018-03-08T22:16:05.197Z,6.03
2018-03-08T22:18:32.763Z,5.98
2018-03-08T22:21:00.334Z,5.97
2018-03-08T22:23:27.981Z,5.95
2018-03-08T22:25:55.537Z,5.92
2018-03-08T22:28:23.105Z,5.92
2018-03-08T22:30:50.743Z,5.96
2018-03-08T22:33:18.541Z,5.95
2018-03-08T22:35:46.225Z,5.96
2018-03-08T22:38:13.934Z,5.95
2018-03-08T22:40:41.628Z,5.97
2018-03-08T22:43:09.275Z,5.93
2018-03-08T22:45:36.845Z,5.90
2018-03-08T22:48:04.491Z,5.90
2018-03-08T22:50:32.062Z,5.91
2018-03-08T22:52:59.970Z,5.95
2018-03-08T22:55:38.454Z,5.89
2018-03-08T22:58:06.076Z,5.85
2018-03-08T23:00:34.173Z,5.83
2018-03-08T23:03:07.291Z,5.84
2018-03-08T23:05:35.138Z,5.82
2018-03-08T23:08:02.707Z,5.79
2018-03-08T23:10:30.616Z,5.76
2018-03-08T23:12:58.209Z,5.76
2018-03-08T23:15:25.802Z,5.76
2018-03-08T23:17:53.353Z,5.79
2018-03-08T23:20:20.967Z,5.78
2018-03-08T23:22:48.543Z,5.81
2018-03-08T23:25:16.099Z,5.77
2018-03-08T23:27:43.689Z,5.78
2018-03-08T23:30:11.311Z,5.83
2018-03-08T23:32:38.859Z,5.82
2018-03-08T23:35:06.460Z,5.81
2018-03-08T23:37:34.019Z,5.86
2018-03-08T23:40:01.614Z,5.88
2018-03-08T23:42:29.259Z,5.88
2018-03-08T23:44:56.897Z,5.85
2018-03-08T23:47:24.457Z,5.85
2018-03-08T23:49:52.009Z,5.83
2018-03-08T23:52:19.633Z,5.84
2018-03-08T23:54:47.290Z,5.83
2018-03-08T23:57:14.848Z,5.79
2018-03-08T23:59:42.439Z,5.76
